Bayard, Nebraska
Current Conditions -  °F | °C
As of 6:53 AM on Thursday 30 Oct 2014 (Local Time) from KBFF Reporting Station
Clear Clear  
Wind Chill: 28°   Ceiling: Unl
Heat Index: 34°   Visibility: 10mi
Dew Point: 27°   Wind: 7mph
Humidity: 75%   Direction: 320°NW
Pressure: 30.3"   Gusts: NA
Location:  41.75°N, 103.32°W
Report Text: KBFF 301253Z AUTO 32006KT 10SM CLR 01/M03 A3030 RMK AO2 SLP262 T00111028 $
Loading
Personal Weather Stations






























Interactive Weather Map
Tropical Storm Tracking
New forecast layout! Learn more

10-Day Weather Forecast

Advertisements
Track Severe Weather on mobile